createdAt,value
2018-02-16T00:02:10.158Z,8.40
2018-02-16T00:04:37.761Z,8.40
2018-02-16T00:07:06.046Z,8.40
2018-02-16T00:09:33.708Z,8.40
2018-02-16T00:12:01.389Z,8.40
2018-02-16T00:14:29.036Z,8.30
2018-02-16T00:16:56.710Z,8.30
2018-02-16T00:19:24.374Z,8.30
2018-02-16T00:21:52.032Z,8.30
2018-02-16T00:24:19.714Z,8.30
2018-02-16T00:26:47.351Z,8.30
2018-02-16T00:29:15.010Z,8.30
2018-02-16T00:31:42.653Z,8.30
2018-02-16T00:34:10.321Z,8.30
2018-02-16T00:36:37.976Z,8.30
2018-02-16T00:39:05.720Z,8.30
2018-02-16T00:41:33.747Z,8.30
2018-02-16T00:44:01.354Z,8.30
2018-02-16T00:46:28.894Z,8.20
2018-02-16T00:48:56.485Z,8.20
2018-02-16T00:51:24.161Z,8.20
2018-02-16T00:53:51.822Z,8.20
2018-02-16T00:56:19.651Z,8.20
2018-02-16T00:58:47.547Z,8.20
2018-02-16T01:01:15.190Z,8.20
2018-02-16T01:03:43.116Z,8.20
2018-02-16T01:06:10.705Z,8.20
2018-02-16T01:08:38.380Z,8.20
2018-02-16T01:11:06.421Z,8.20
2018-02-16T01:13:34.216Z,8.20
2018-02-16T01:16:02.261Z,8.20
2018-02-16T01:18:29.830Z,8.10
2018-02-16T01:20:57.753Z,8.10
2018-02-16T01:23:25.397Z,8.20
2018-02-16T01:26:02.067Z,8.20
2018-02-16T01:28:31.581Z,8.20
2018-02-16T01:31:00.800Z,8.20
2018-02-16T01:33:32.478Z,8.20
2018-02-16T01:36:00.702Z,8.10
2018-02-16T01:38:28.921Z,8.10
2018-02-16T01:40:56.431Z,8.10
2018-02-16T01:43:24.040Z,8.10
2018-02-16T01:45:51.563Z,8.10
2018-02-16T01:48:19.154Z,8.10
2018-02-16T01:50:47.035Z,8.10
2018-02-16T01:53:14.788Z,8.10
2018-02-16T01:55:42.777Z,8.10
2018-02-16T01:58:10.422Z,8.10
2018-02-16T02:00:42.440Z,8.00
2018-02-16T02:03:10.046Z,8.00
2018-02-16T02:05:37.597Z,8.10
2018-02-16T02:08:05.141Z,8.10
2018-02-16T02:10:32.660Z,8.20
2018-02-16T02:13:00.267Z,8.30
2018-02-16T02:15:27.782Z,8.40
2018-02-16T02:17:55.919Z,8.60
2018-02-16T02:20:23.928Z,9.10
2018-02-16T02:22:54.268Z,9.10
2018-02-16T02:25:21.863Z,9.30
2018-02-16T02:27:49.434Z,9.50
2018-02-16T02:30:17.390Z,9.90
2018-02-16T02:32:44.981Z,9.90
2018-02-16T02:35:12.569Z,10.10
2018-02-16T02:37:40.201Z,10.20
2018-02-16T02:40:12.168Z,10.40
2018-02-16T02:42:39.834Z,10.50
2018-02-16T02:45:07.438Z,10.70
2018-02-16T02:47:35.019Z,10.80
2018-02-16T02:50:02.641Z,10.80
2018-02-16T02:52:30.310Z,10.90
2018-02-16T02:54:57.895Z,11.00
2018-02-16T02:57:25.440Z,11.00
2018-02-16T02:59:53.029Z,11.10
2018-02-16T03:02:20.660Z,11.20
2018-02-16T03:04:48.180Z,11.30
2018-02-16T03:07:15.777Z,11.30
2018-02-16T03:09:43.703Z,11.50
2018-02-16T03:12:11.291Z,11.50
2018-02-16T03:14:38.819Z,11.50
2018-02-16T03:17:06.411Z,11.60
2018-02-16T03:19:33.930Z,11.70
2018-02-16T03:22:01.530Z,11.70
2018-02-16T03:24:29.046Z,11.80
2018-02-16T03:26:56.655Z,11.90
2018-02-16T03:29:30.106Z,11.90
2018-02-16T03:32:00.212Z,12.00
2018-02-16T03:34:27.839Z,12.10
2018-02-16T03:36:55.407Z,12.10
2018-02-16T03:39:22.984Z,12.10
2018-02-16T03:41:50.589Z,12.20
2018-02-16T03:44:18.116Z,12.30
2018-02-16T03:46:45.733Z,12.30
2018-02-16T03:49:13.252Z,12.30
2018-02-16T03:51:42.070Z,12.40
2018-02-16T03:54:09.615Z,12.40
2018-02-16T03:56:37.194Z,12.50
2018-02-16T03:59:04.934Z,12.50
2018-02-16T04:01:32.524Z,12.50
2018-02-16T04:04:00.154Z,12.50
2018-02-16T04:06:27.682Z,12.60
2018-02-16T04:08:55.532Z,12.60
2018-02-16T04:11:23.163Z,12.40
2018-02-16T04:13:50.823Z,12.20
2018-02-16T04:16:18.972Z,11.90
2018-02-16T04:18:48.310Z,11.70
2018-02-16T04:21:15.844Z,11.50
2018-02-16T04:23:43.749Z,11.20
2018-02-16T04:26:11.358Z,11.20
2018-02-16T04:28:39.041Z,11.00
2018-02-16T04:31:06.740Z,10.90
2018-02-16T04:33:34.350Z,10.80
2018-02-16T04:36:02.302Z,10.70
2018-02-16T04:38:29.912Z,10.60
2018-02-16T04:40:57.566Z,10.50
2018-02-16T04:43:25.187Z,10.40
2018-02-16T04:45:53.356Z,10.20
2018-02-16T04:48:20.982Z,10.20
2018-02-16T04:50:51.737Z,10.20
2018-02-16T04:53:24.072Z,10.10
2018-02-16T04:56:16.179Z,10.10
2018-02-16T04:58:58.850Z,10.00
2018-02-16T05:01:30.245Z,9.90
2018-02-16T05:03:58.008Z,9.90
2018-02-16T05:06:25.805Z,9.80
2018-02-16T05:08:54.273Z,9.80
2018-02-16T05:11:21.941Z,9.80
2018-02-16T05:13:49.630Z,9.80
2018-02-16T05:16:17.286Z,9.70
2018-02-16T05:18:44.948Z,9.70
2018-02-16T05:21:12.538Z,9.60
2018-02-16T05:23:40.046Z,9.60
2018-02-16T05:26:07.841Z,9.50
2018-02-16T05:28:35.797Z,9.50
2018-02-16T05:31:03.443Z,9.50
2018-02-16T05:33:31.073Z,9.50
2018-02-16T05:35:58.773Z,9.50
2018-02-16T05:38:26.365Z,9.40
2018-02-16T05:40:53.884Z,9.40
2018-02-16T05:43:21.469Z,9.40
2018-02-16T05:45:49.275Z,9.30
2018-02-16T05:48:16.799Z,9.30
2018-02-16T05:50:44.322Z,9.30
2018-02-16T05:53:11.906Z,9.30
2018-02-16T05:55:39.479Z,9.30
2018-02-16T05:58:07.430Z,9.20
2018-02-16T06:00:35.031Z,9.20
2018-02-16T06:03:02.624Z,9.20
2018-02-16T06:05:30.235Z,9.10
2018-02-16T06:07:58.032Z,9.10
2018-02-16T06:10:25.566Z,9.10
2018-02-16T06:12:53.281Z,9.10
2018-02-16T06:15:20.869Z,9.10
2018-02-16T06:17:48.839Z,9.00
2018-02-16T06:20:16.422Z,9.00
2018-02-16T06:22:44.048Z,9.00
2018-02-16T06:25:11.846Z,9.00
2018-02-16T06:27:42.298Z,9.00
2018-02-16T06:30:09.902Z,8.90
2018-02-16T06:32:37.417Z,8.90
2018-02-16T06:35:05.016Z,8.90
2018-02-16T06:37:32.683Z,8.90
2018-02-16T06:40:00.197Z,8.90
2018-02-16T06:42:27.814Z,8.90
2018-02-16T06:44:55.451Z,8.80
2018-02-16T06:47:23.029Z,8.80
2018-02-16T06:49:50.975Z,8.80
2018-02-16T06:52:18.797Z,8.80
2018-02-16T06:54:48.252Z,8.80
2018-02-16T06:57:15.848Z,8.70
2018-02-16T06:59:43.484Z,8.70
2018-02-16T07:02:11.152Z,8.70
2018-02-16T07:04:38.808Z,8.70
2018-02-16T07:07:06.497Z,8.70
2018-02-16T07:09:34.141Z,8.70
2018-02-16T07:12:01.852Z,8.70
2018-02-16T07:14:29.498Z,8.60
2018-02-16T07:16:57.152Z,8.60
2018-02-16T07:19:24.793Z,8.70
2018-02-16T07:21:52.468Z,8.70
2018-02-16T07:24:20.151Z,8.70
2018-02-16T07:26:47.789Z,8.70
2018-02-16T07:29:15.499Z,8.70
2018-02-16T07:31:48.222Z,8.60
2018-02-16T07:34:15.870Z,8.60
2018-02-16T07:36:43.578Z,8.60
2018-02-16T07:39:12.266Z,8.60
2018-02-16T07:41:39.865Z,8.70
2018-02-16T07:44:07.517Z,8.60
2018-02-16T07:46:35.045Z,8.70
2018-02-16T07:49:02.631Z,8.70
2018-02-16T07:51:30.162Z,8.70
2018-02-16T07:53:57.734Z,8.70
2018-02-16T07:56:25.275Z,8.70
2018-02-16T07:58:52.849Z,8.70
2018-02-16T08:01:24.210Z,8.70
2018-02-16T08:03:54.318Z,8.70
2018-02-16T08:06:21.986Z,8.70
2018-02-16T08:08:49.904Z,8.70
2018-02-16T08:11:17.538Z,8.60
2018-02-16T08:13:45.197Z,8.60
2018-02-16T08:16:13.439Z,8.60
2018-02-16T08:18:41.775Z,8.60
2018-02-16T08:21:09.628Z,8.60
2018-02-16T08:23:42.595Z,8.60
2018-02-16T08:26:10.258Z,8.60
2018-02-16T08:28:38.315Z,8.60
2018-02-16T08:31:05.877Z,8.60
2018-02-16T08:33:33.859Z,8.60
2018-02-16T08:36:01.560Z,8.60
2018-02-16T08:38:29.178Z,8.60
2018-02-16T08:40:56.876Z,8.60
2018-02-16T08:43:24.673Z,8.60
2018-02-16T08:45:52.547Z,8.60
2018-02-16T08:48:24.299Z,8.60
2018-02-16T08:50:52.036Z,8.60
2018-02-16T08:53:19.702Z,8.50
2018-02-16T08:55:47.299Z,8.60
2018-02-16T08:58:18.222Z,8.60
2018-02-16T09:00:46.194Z,8.60
2018-02-16T09:03:14.221Z,8.60
2018-02-16T09:05:41.809Z,8.60
2018-02-16T09:08:09.338Z,8.50
2018-02-16T09:10:37.005Z,8.50
2018-02-16T09:13:12.076Z,8.50
2018-02-16T09:15:40.089Z,8.50
2018-02-16T09:18:07.783Z,8.50
2018-02-16T09:20:42.006Z,8.50
2018-02-16T09:23:09.806Z,8.60
2018-02-16T09:25:42.364Z,8.60
2018-02-16T09:28:09.926Z,8.50
2018-02-16T09:30:37.901Z,8.50
2018-02-16T09:33:05.445Z,8.50
2018-02-16T09:35:33.616Z,8.60
2018-02-16T09:38:06.411Z,8.50
2018-02-16T09:40:34.368Z,8.50
2018-02-16T09:43:06.234Z,8.50
2018-02-16T09:45:33.785Z,8.50
2018-02-16T09:48:01.767Z,8.50
2018-02-16T09:50:29.540Z,8.50
2018-02-16T09:52:57.090Z,8.50
2018-02-16T09:55:24.764Z,8.50
2018-02-16T09:57:52.380Z,8.50
2018-02-16T10:00:19.954Z,8.50
2018-02-16T10:02:48.362Z,8.50
2018-02-16T10:05:16.029Z,8.50
2018-02-16T10:07:43.640Z,8.50
2018-02-16T10:10:11.186Z,8.50
2018-02-16T10:12:38.958Z,8.50
2018-02-16T10:15:06.509Z,8.50
2018-02-16T10:17:34.165Z,8.50
2018-02-16T10:20:01.858Z,8.50
2018-02-16T10:22:29.897Z,8.50
2018-02-16T10:24:57.491Z,8.50
2018-02-16T10:27:25.611Z,8.50
2018-02-16T10:29:53.259Z,8.50
2018-02-16T10:32:20.860Z,8.50
2018-02-16T10:34:48.505Z,8.50
2018-02-16T10:37:18.267Z,8.50
2018-02-16T10:39:45.906Z,8.40
2018-02-16T10:42:13.725Z,8.50
2018-02-16T10:44:41.305Z,8.40
2018-02-16T10:47:08.919Z,8.40
2018-02-16T10:49:36.599Z,8.40
2018-02-16T10:52:04.268Z,8.40
2018-02-16T10:54:31.919Z,8.40
2018-02-16T10:56:59.734Z,8.40
2018-02-16T10:59:27.291Z,8.40
2018-02-16T11:02:00.848Z,8.40
2018-02-16T11:04:34.059Z,8.40
2018-02-16T11:07:07.350Z,8.40
2018-02-16T11:09:36.277Z,8.40
2018-02-16T11:12:07.840Z,8.40
2018-02-16T11:14:35.486Z,8.40
2018-02-16T11:17:03.141Z,8.40
2018-02-16T11:19:36.437Z,8.40
2018-02-16T11:22:04.409Z,8.40
2018-02-16T11:24:32.092Z,8.40
2018-02-16T11:27:00.349Z,8.40
2018-02-16T11:29:28.084Z,8.40
2018-02-16T11:31:56.082Z,8.50
2018-02-16T11:34:23.784Z,8.50
2018-02-16T11:36:51.422Z,8.50
2018-02-16T11:39:19.092Z,8.50
2018-02-16T11:41:47.443Z,8.60
2018-02-16T11:44:15.273Z,8.90
2018-02-16T11:46:58.826Z,9.00
2018-02-16T11:49:35.374Z,8.90
2018-02-16T11:52:03.171Z,8.90
2018-02-16T11:54:30.854Z,8.80
2018-02-16T11:57:00.352Z,8.70
2018-02-16T11:59:28.014Z,8.70
2018-02-16T12:01:55.680Z,8.70
2018-02-16T12:04:23.514Z,8.60
2018-02-16T12:06:51.050Z,8.60
2018-02-16T12:09:18.673Z,8.60
2018-02-16T12:11:48.354Z,8.60
2018-02-16T12:14:29.690Z,8.60
2018-02-16T12:16:57.213Z,8.60
2018-02-16T12:19:24.991Z,8.50
2018-02-16T12:21:52.566Z,8.60
2018-02-16T12:24:20.153Z,8.60
2018-02-16T12:26:47.716Z,8.60
2018-02-16T12:29:15.690Z,8.90
2018-02-16T12:31:48.459Z,8.90
2018-02-16T12:34:16.171Z,9.00
2018-02-16T12:36:48.528Z,9.00
2018-02-16T12:39:16.171Z,8.90
2018-02-16T12:41:43.815Z,8.80
2018-02-16T12:44:12.599Z,8.70
2018-02-16T12:46:40.587Z,8.70
2018-02-16T12:49:08.250Z,8.70
2018-02-16T12:51:35.879Z,8.60
2018-02-16T12:54:03.423Z,8.60
2018-02-16T12:56:31.138Z,8.60
2018-02-16T12:58:58.673Z,8.60
2018-02-16T13:01:26.199Z,8.60
2018-02-16T13:03:53.830Z,8.60
2018-02-16T13:06:21.471Z,8.60
2018-02-16T13:08:49.082Z,8.60
2018-02-16T13:11:16.844Z,8.60
2018-02-16T13:13:44.423Z,8.60
2018-02-16T13:16:12.020Z,8.70
2018-02-16T13:18:39.545Z,8.60
2018-02-16T13:21:07.105Z,8.60
2018-02-16T13:23:35.446Z,8.60
2018-02-16T13:26:02.990Z,8.50
2018-02-16T13:28:30.653Z,8.50
2018-02-16T13:30:58.315Z,8.50
2018-02-16T13:33:25.921Z,8.50
2018-02-16T13:35:53.838Z,8.50
2018-02-16T13:38:21.450Z,8.50
2018-02-16T13:40:49.156Z,8.50
2018-02-16T13:43:17.653Z,8.50
2018-02-16T13:45:45.696Z,8.50
2018-02-16T13:48:13.396Z,8.50
2018-02-16T13:50:41.004Z,8.50
2018-02-16T13:53:08.727Z,8.60
2018-02-16T13:55:36.324Z,8.50
2018-02-16T13:58:03.984Z,8.50
2018-02-16T14:00:31.672Z,8.50
2018-02-16T14:02:59.308Z,8.50
2018-02-16T14:05:26.950Z,8.50
2018-02-16T14:07:54.510Z,8.50
2018-02-16T14:10:22.503Z,8.50
2018-02-16T14:12:50.165Z,8.50
2018-02-16T14:15:17.834Z,8.50
2018-02-16T14:17:45.487Z,8.50
2018-02-16T14:20:13.120Z,8.50
2018-02-16T14:22:42.480Z,8.50
2018-02-16T14:25:10.096Z,8.50
2018-02-16T14:27:37.750Z,8.50
2018-02-16T14:30:05.443Z,8.50
2018-02-16T14:32:33.060Z,8.50
2018-02-16T14:35:00.574Z,8.40
2018-02-16T14:37:28.313Z,8.50
2018-02-16T14:39:55.863Z,8.40
2018-02-16T14:42:23.509Z,8.40
2018-02-16T14:44:51.226Z,8.40
2018-02-16T14:47:18.862Z,8.40
2018-02-16T14:49:48.605Z,8.40
2018-02-16T14:52:16.186Z,8.40
2018-02-16T14:54:43.881Z,8.40
2018-02-16T14:57:11.641Z,8.40
2018-02-16T14:59:39.166Z,8.40
2018-02-16T15:02:07.121Z,8.40
2018-02-16T15:04:34.705Z,8.40
2018-02-16T15:07:02.990Z,8.40
2018-02-16T15:09:35.990Z,8.40
2018-02-16T15:12:04.038Z,8.40
2018-02-16T15:14:31.743Z,8.40
2018-02-16T15:16:59.551Z,8.40
2018-02-16T15:19:27.104Z,8.40
2018-02-16T15:21:55.093Z,8.50
2018-02-16T15:24:22.741Z,8.50
2018-02-16T15:26:50.288Z,8.50
2018-02-16T15:29:18.286Z,8.50
2018-02-16T15:31:45.959Z,8.50
2018-02-16T15:34:13.586Z,8.50
2018-02-16T15:36:41.103Z,8.50
2018-02-16T15:39:09.094Z,8.50
2018-02-16T15:41:36.612Z,8.50
2018-02-16T15:44:04.245Z,8.50
2018-02-16T15:46:31.907Z,8.50
2018-02-16T15:48:59.571Z,8.50
2018-02-16T15:51:27.215Z,8.50
2018-02-16T15:53:54.778Z,8.40
2018-02-16T15:56:22.594Z,8.40
2018-02-16T15:58:50.189Z,8.40
2018-02-16T16:01:17.711Z,8.40
2018-02-16T16:03:45.354Z,8.40
2018-02-16T16:06:18.482Z,8.40
2018-02-16T16:08:48.619Z,8.40
2018-02-16T16:11:16.206Z,8.40
2018-02-16T16:13:43.813Z,8.40
2018-02-16T16:16:11.400Z,8.40
2018-02-16T16:18:42.559Z,8.40
2018-02-16T16:21:10.237Z,8.40
2018-02-16T16:23:37.908Z,8.40
2018-02-16T16:26:06.621Z,8.30
2018-02-16T16:28:34.246Z,8.30
2018-02-16T16:31:01.875Z,8.30
2018-02-16T16:33:29.536Z,8.30
2018-02-16T16:35:57.518Z,8.30
2018-02-16T16:38:25.125Z,8.30
2018-02-16T16:40:52.717Z,8.30
2018-02-16T16:43:20.268Z,8.30
2018-02-16T16:45:48.454Z,8.30
2018-02-16T16:48:15.996Z,8.30
2018-02-16T16:50:43.952Z,8.30
2018-02-16T16:53:11.472Z,8.30
2018-02-16T16:55:39.454Z,8.30
2018-02-16T16:58:06.995Z,8.30
2018-02-16T17:00:34.616Z,8.20
2018-02-16T17:03:02.152Z,8.20
2018-02-16T17:05:29.729Z,8.20
2018-02-16T17:07:57.258Z,8.20
2018-02-16T17:10:25.022Z,8.20
2018-02-16T17:12:52.573Z,8.20
2018-02-16T17:15:20.252Z,8.20
2018-02-16T17:17:47.847Z,8.20
2018-02-16T17:20:15.601Z,8.20
2018-02-16T17:22:43.548Z,8.20
2018-02-16T17:25:11.067Z,8.20
2018-02-16T17:27:38.709Z,8.20
2018-02-16T17:30:06.342Z,8.20
2018-02-16T17:32:34.454Z,8.20
2018-02-16T17:35:06.559Z,8.10
2018-02-16T17:37:34.114Z,8.10
2018-02-16T17:40:01.853Z,8.10
2018-02-16T17:42:29.386Z,8.10
2018-02-16T17:44:57.002Z,8.10
2018-02-16T17:47:24.828Z,8.10
2018-02-16T17:49:52.378Z,8.10
2018-02-16T17:52:20.070Z,8.10
2018-02-16T17:54:47.668Z,8.10
2018-02-16T17:57:18.607Z,8.10
2018-02-16T17:59:46.234Z,8.10
2018-02-16T18:02:13.769Z,8.10
2018-02-16T18:04:41.367Z,8.10
2018-02-16T18:07:09.278Z,8.10
2018-02-16T18:09:36.934Z,8.10
2018-02-16T18:12:04.583Z,8.00
2018-02-16T18:14:32.213Z,8.00
2018-02-16T18:16:59.734Z,8.00
2018-02-16T18:19:27.322Z,8.00
2018-02-16T18:22:00.525Z,8.30
2018-02-16T18:24:28.428Z,8.30
2018-02-16T18:27:11.362Z,8.60
2018-02-16T18:29:53.049Z,8.80
2018-02-16T18:32:26.669Z,9.10
2018-02-16T18:35:11.892Z,9.40
2018-02-16T18:37:39.760Z,9.60
2018-02-16T18:40:07.412Z,9.90
2018-02-16T18:42:35.120Z,10.10
2018-02-16T18:45:02.791Z,10.30
2018-02-16T18:47:30.405Z,10.50
2018-02-16T18:49:58.063Z,10.70
2018-02-16T18:52:36.255Z,10.80
2018-02-16T18:55:04.260Z,11.10
2018-02-16T18:57:31.927Z,11.10
2018-02-16T18:59:59.575Z,11.20
2018-02-16T19:02:27.222Z,11.20
2018-02-16T19:05:00.637Z,11.30
2018-02-16T19:07:28.281Z,11.40
2018-02-16T19:09:55.937Z,11.50
2018-02-16T19:12:23.591Z,11.50
2018-02-16T19:14:51.680Z,11.60
2018-02-16T19:17:19.299Z,11.70
2018-02-16T19:19:48.610Z,11.70
2018-02-16T19:22:16.779Z,11.80
2018-02-16T19:24:44.733Z,11.90
2018-02-16T19:27:12.395Z,11.90
2018-02-16T19:29:39.916Z,12.00
2018-02-16T19:32:07.514Z,12.10
2018-02-16T19:34:35.200Z,12.10
2018-02-16T19:37:02.891Z,12.20
2018-02-16T19:39:30.526Z,12.30
2018-02-16T19:41:58.205Z,12.30
2018-02-16T19:44:26.215Z,12.30
2018-02-16T19:46:54.020Z,12.40
2018-02-16T19:49:21.622Z,12.40
2018-02-16T19:51:49.699Z,12.50
2018-02-16T19:54:17.681Z,12.50
2018-02-16T19:56:45.269Z,12.60
2018-02-16T19:59:19.028Z,12.60
2018-02-16T20:01:46.647Z,12.60
2018-02-16T20:04:14.908Z,12.70
2018-02-16T20:06:42.578Z,12.80
2018-02-16T20:09:10.215Z,12.80
2018-02-16T20:11:37.962Z,12.90
2018-02-16T20:14:05.558Z,13.00
2018-02-16T20:16:33.200Z,13.00
2018-02-16T20:19:00.734Z,13.00
2018-02-16T20:21:28.325Z,13.10
2018-02-16T20:23:56.624Z,13.10
2018-02-16T20:26:24.564Z,13.10
2018-02-16T20:28:52.138Z,13.10
2018-02-16T20:31:20.261Z,13.20
2018-02-16T20:33:48.247Z,13.20
2018-02-16T20:36:16.605Z,13.20
2018-02-16T20:38:44.236Z,13.30
2018-02-16T20:41:12.133Z,13.30
2018-02-16T20:43:39.793Z,13.30
2018-02-16T20:46:12.717Z,13.30
2018-02-16T20:48:40.300Z,13.40
2018-02-16T20:51:07.811Z,13.40
2018-02-16T20:53:35.492Z,13.40
2018-02-16T20:56:03.197Z,13.40
2018-02-16T20:58:30.840Z,13.50
2018-02-16T21:00:58.576Z,13.50
2018-02-16T21:03:26.556Z,13.60
2018-02-16T21:05:54.230Z,13.60
2018-02-16T21:08:21.912Z,13.60
2018-02-16T21:10:49.540Z,13.70
2018-02-16T21:13:17.422Z,13.70
2018-02-16T21:15:48.803Z,13.80
2018-02-16T21:18:16.455Z,13.70
2018-02-16T21:20:44.069Z,13.70
2018-02-16T21:23:11.749Z,13.80
2018-02-16T21:25:39.444Z,13.80
2018-02-16T21:28:07.055Z,13.80
2018-02-16T21:30:34.734Z,13.60
2018-02-16T21:33:02.378Z,13.30
2018-02-16T21:35:30.780Z,13.00
2018-02-16T21:37:58.353Z,12.70
2018-02-16T21:40:26.194Z,12.50
2018-02-16T21:42:53.805Z,12.30
2018-02-16T21:45:21.636Z,12.10
2018-02-16T21:47:49.214Z,11.90
2018-02-16T21:50:16.851Z,11.80
2018-02-16T21:52:51.373Z,11.60
2018-02-16T21:55:39.226Z,11.50
2018-02-16T21:58:07.911Z,11.40
2018-02-16T22:00:50.137Z,11.30
2018-02-16T22:03:18.570Z,11.20
2018-02-16T22:05:46.186Z,11.20
2018-02-16T22:08:18.783Z,11.10
2018-02-16T22:10:46.478Z,11.10
2018-02-16T22:13:14.090Z,11.00
2018-02-16T22:15:42.339Z,10.90
2018-02-16T22:18:09.895Z,10.90
2018-02-16T22:20:42.667Z,10.80
2018-02-16T22:23:18.329Z,10.80
2018-02-16T22:25:45.959Z,10.70
2018-02-16T22:28:13.565Z,10.70
2018-02-16T22:30:41.785Z,10.60
2018-02-16T22:33:09.345Z,10.60
2018-02-16T22:35:36.970Z,10.50
2018-02-16T22:38:04.755Z,10.50
2018-02-16T22:40:42.418Z,10.40
2018-02-16T22:43:10.386Z,10.30
2018-02-16T22:45:38.335Z,10.30
2018-02-16T22:48:06.035Z,10.30
2018-02-16T22:50:33.620Z,10.30
2018-02-16T22:53:01.246Z,10.20
2018-02-16T22:55:28.904Z,10.20
2018-02-16T22:57:56.561Z,10.10
2018-02-16T23:00:24.094Z,10.10
2018-02-16T23:02:51.733Z,10.00
2018-02-16T23:05:19.347Z,10.00
2018-02-16T23:07:47.069Z,10.00
2018-02-16T23:10:14.700Z,9.90
2018-02-16T23:12:48.666Z,9.90
2018-02-16T23:15:16.212Z,9.90
2018-02-16T23:17:43.820Z,9.90
2018-02-16T23:20:11.447Z,9.80
2018-02-16T23:22:39.029Z,9.80
2018-02-16T23:25:06.759Z,9.80
2018-02-16T23:27:34.374Z,9.80
2018-02-16T23:30:01.939Z,9.80
2018-02-16T23:32:29.551Z,9.70
2018-02-16T23:34:57.098Z,9.70
2018-02-16T23:37:25.079Z,9.70
2018-02-16T23:40:00.402Z,9.70
2018-02-16T23:42:27.935Z,9.70
2018-02-16T23:44:55.571Z,9.60
2018-02-16T23:47:23.172Z,9.60
2018-02-16T23:49:50.755Z,9.60
2018-02-16T23:52:18.341Z,9.60
2018-02-16T23:54:45.886Z,9.50
2018-02-16T23:57:18.838Z,9.50
2018-02-16T23:59:46.783Z,9.50
